sensor_id;sensor_type;location;lat;lon;timestamp;pressure;altitude;pressure_sealevel;temperature;humidity
84358;BME280;74548;47.712;9.272;2024-01-15T00:00:40;94649.84;;;1.26;69.98
84358;BME280;74548;47.712;9.272;2024-01-15T00:03:05;94647.19;;;1.26;69.91
84358;BME280;74548;47.712;9.272;2024-01-15T00:05:31;94640.03;;;1.27;70.33
84358;BME280;74548;47.712;9.272;2024-01-15T00:07:58;94631.81;;;1.28;70.18
84358;BME280;74548;47.712;9.272;2024-01-15T00:10:23;94635.53;;;1.27;70.19
84358;BME280;74548;47.712;9.272;2024-01-15T00:12:49;94640.84;;;1.27;70.65
84358;BME280;74548;47.712;9.272;2024-01-15T00:15:14;94653.88;;;1.29;70.15
84358;BME280;74548;47.712;9.272;2024-01-15T00:17:40;94650.16;;;1.30;70.41
84358;BME280;74548;47.712;9.272;2024-01-15T00:20:06;94651.22;;;1.29;70.00
84358;BME280;74548;47.712;9.272;2024-01-15T00:22:31;94648.56;;;1.29;69.74
84358;BME280;74548;47.712;9.272;2024-01-15T00:24:57;94646.69;;;1.29;69.90
84358;BME280;74548;47.712;9.272;2024-01-15T00:27:22;94646.69;;;1.29;70.19
84358;BME280;74548;47.712;9.272;2024-01-15T00:29:49;94637.69;;;1.30;69.98
84358;BME280;74548;47.712;9.272;2024-01-15T00:32:15;94629.72;;;1.30;70.26
84358;BME280;74548;47.712;9.272;2024-01-15T00:34:41;94633.16;;;1.31;69.99
84358;BME280;74548;47.712;9.272;2024-01-15T00:37:06;94630.50;;;1.31;69.89
84358;BME280;74548;47.712;9.272;2024-01-15T00:39:32;94632.09;;;1.32;70.24
84358;BME280;74548;47.712;9.272;2024-01-15T00:41:57;94621.47;;;1.32;70.38
84358;BME280;74548;47.712;9.272;2024-01-15T00:44:23;94629.44;;;1.32;70.25
84358;BME280;74548;47.712;9.272;2024-01-15T00:46:48;94624.13;;;1.32;70.37
84358;BME280;74548;47.712;9.272;2024-01-15T00:49:14;94624.13;;;1.32;70.23
84358;BME280;74548;47.712;9.272;2024-01-15T00:51:39;94630.22;;;1.32;70.24
84358;BME280;74548;47.712;9.272;2024-01-15T00:54:05;94623.06;;;1.33;70.11
84358;BME280;74548;47.712;9.272;2024-01-15T00:56:30;94617.75;;;1.33;69.92
84358;BME280;74548;47.712;9.272;2024-01-15T00:58:56;94629.19;;;1.33;69.98
84358;BME280;74548;47.712;9.272;2024-01-15T01:01:21;94631.03;;;1.33;70.40
84358;BME280;74548;47.712;9.272;2024-01-15T01:03:47;94636.13;;;1.34;70.39
84358;BME280;74548;47.712;9.272;2024-01-15T01:06:13;94629.19;;;1.33;70.18
84358;BME280;74548;47.712;9.272;2024-01-15T01:08:39;94629.72;;;1.35;70.17
84358;BME280;74548;47.712;9.272;2024-01-15T01:11:04;94634.00;;;1.36;70.15
84358;BME280;74548;47.712;9.272;2024-01-15T01:13:29;94622.56;;;1.36;70.57
84358;BME280;74548;47.712;9.272;2024-01-15T01:15:55;94638.25;;;1.37;70.62
84358;BME280;74548;47.712;9.272;2024-01-15T01:18:20;94636.66;;;1.36;70.84
84358;BME280;74548;47.712;9.272;2024-01-15T01:20:45;94643.59;;;1.37;70.58
84358;BME280;74548;47.712;9.272;2024-01-15T01:23:11;94649.69;;;1.38;70.04
84358;BME280;74548;47.712;9.272;2024-01-15T01:25:36;94655.81;;;1.38;70.59
84358;BME280;74548;47.712;9.272;2024-01-15T01:28:01;94651.56;;;1.37;70.26
84358;BME280;74548;47.712;9.272;2024-01-15T01:30:27;94653.94;;;1.39;70.47
84358;BME280;74548;47.712;9.272;2024-01-15T01:32:52;94660.06;;;1.39;70.25
84358;BME280;74548;47.712;9.272;2024-01-15T01:35:17;94664.34;;;1.41;70.58
84358;BME280;74548;47.712;9.272;2024-01-15T01:37:43;94660.88;;;1.40;70.47
84358;BME280;74548;47.712;9.272;2024-01-15T01:40:08;94660.88;;;1.40;70.12
84358;BME280;74548;47.712;9.272;2024-01-15T01:42:34;94660.88;;;1.40;70.10
84358;BME280;74548;47.712;9.272;2024-01-15T01:44:59;94666.22;;;1.40;70.54
84358;BME280;74548;47.712;9.272;2024-01-15T01:47:24;94676.56;;;1.42;70.61
84358;BME280;74548;47.712;9.272;2024-01-15T01:49:52;94669.66;;;1.41;70.16
84358;BME280;74548;47.712;9.272;2024-01-15T01:52:17;94676.56;;;1.42;70.40
84358;BME280;74548;47.712;9.272;2024-01-15T01:54:43;94680.03;;;1.42;70.47
84358;BME280;74548;47.712;9.272;2024-01-15T01:57:09;94685.63;;;1.41;70.45
84358;BME280;74548;47.712;9.272;2024-01-15T01:59:36;94681.66;;;1.43;70.36
84358;BME280;74548;47.712;9.272;2024-01-15T02:02:02;94672.31;;;1.41;70.11
84358;BME280;74548;47.712;9.272;2024-01-15T02:04:29;94675.50;;;1.43;70.48
84358;BME280;74548;47.712;9.272;2024-01-15T02:06:55;94660.63;;;1.42;69.94
84358;BME280;74548;47.712;9.272;2024-01-15T02:09:20;94657.97;;;1.42;70.37
84358;BME280;74548;47.712;9.272;2024-01-15T02:11:47;94664.06;;;1.42;70.15
84358;BME280;74548;47.712;9.272;2024-01-15T02:14:13;94668.34;;;1.43;70.08
84358;BME280;74548;47.712;9.272;2024-01-15T02:16:38;94669.16;;;1.44;70.14
84358;BME280;74548;47.712;9.272;2024-01-15T02:19:03;94663.03;;;1.43;70.25
84358;BME280;74548;47.712;9.272;2024-01-15T02:21:29;94668.09;;;1.45;70.16
84358;BME280;74548;47.712;9.272;2024-01-15T02:23:55;94668.09;;;1.45;69.82
84358;BME280;74548;47.712;9.272;2024-01-15T02:26:21;94677.94;;;1.44;70.26
84358;BME280;74548;47.712;9.272;2024-01-15T02:28:47;94679.78;;;1.44;69.87
84358;BME280;74548;47.712;9.272;2024-01-15T02:31:13;94684.84;;;1.45;69.94
84358;BME280;74548;47.712;9.272;2024-01-15T02:33:39;94675.28;;;1.44;70.31
84358;BME280;74548;47.712;9.272;2024-01-15T02:36:04;94674.22;;;1.45;70.13
84358;BME280;74548;47.712;9.272;2024-01-15T02:38:30;94662.78;;;1.45;70.08
84358;BME280;74548;47.712;9.272;2024-01-15T02:40:55;94674.22;;;1.45;69.87
84358;BME280;74548;47.712;9.272;2024-01-15T02:43:20;94672.59;;;1.44;70.55
84358;BME280;74548;47.712;9.272;2024-01-15T02:45:46;94674.22;;;1.45;70.16
84358;BME280;74548;47.712;9.272;2024-01-15T02:48:12;94657.44;;;1.45;70.16
84358;BME280;74548;47.712;9.272;2024-01-15T02:50:37;94659.03;;;1.46;69.94
84358;BME280;74548;47.712;9.272;2024-01-15T02:53:03;94664.38;;;1.46;70.17
84358;BME280;74548;47.712;9.272;2024-01-15T02:55:28;94674.22;;;1.45;70.02
84358;BME280;74548;47.712;9.272;2024-01-15T02:57:56;94675.81;;;1.46;70.32
84358;BME280;74548;47.712;9.272;2024-01-15T03:00:21;94672.34;;;1.46;70.02
84358;BME280;74548;47.712;9.272;2024-01-15T03:02:49;94669.69;;;1.46;70.08
84358;BME280;74548;47.712;9.272;2024-01-15T03:05:15;94672.34;;;1.46;69.99
84358;BME280;74548;47.712;9.272;2024-01-15T03:07:41;94671.31;;;1.47;70.28
84358;BME280;74548;47.712;9.272;2024-01-15T03:10:06;94669.69;;;1.46;69.93
84358;BME280;74548;47.712;9.272;2024-01-15T03:12:32;94662.53;;;1.46;70.21
84358;BME280;74548;47.712;9.272;2024-01-15T03:14:57;94650.03;;;1.47;70.29
84358;BME280;74548;47.712;9.272;2024-01-15T03:17:23;94646.59;;;1.46;70.44
84358;BME280;74548;47.712;9.272;2024-01-15T03:19:48;94640.19;;;1.47;70.12
84358;BME280;74548;47.712;9.272;2024-01-15T03:22:15;94642.84;;;1.47;69.91
84358;BME280;74548;47.712;9.272;2024-01-15T03:24:40;94641.00;;;1.48;70.06
84358;BME280;74548;47.712;9.272;2024-01-15T03:27:06;94650.03;;;1.47;70.09
84358;BME280;74548;47.712;9.272;2024-01-15T03:29:31;94655.34;;;1.47;70.24
84358;BME280;74548;47.712;9.272;2024-01-15T03:31:56;94647.09;;;1.48;69.92
84358;BME280;74548;47.712;9.272;2024-01-15T03:34:22;94638.34;;;1.48;70.01
84358;BME280;74548;47.712;9.272;2024-01-15T03:36:47;94642.59;;;1.49;70.24
84358;BME280;74548;47.712;9.272;2024-01-15T03:39:12;94652.44;;;1.48;70.33
84358;BME280;74548;47.712;9.272;2024-01-15T03:41:38;94642.59;;;1.49;70.54
84358;BME280;74548;47.712;9.272;2024-01-15T03:44:03;94646.06;;;1.49;70.07
84358;BME280;74548;47.712;9.272;2024-01-15T03:46:29;94654.84;;;1.50;70.38
84358;BME280;74548;47.712;9.272;2024-01-15T03:48:54;94654.84;;;1.50;69.90
84358;BME280;74548;47.712;9.272;2024-01-15T03:51:19;94654.06;;;1.49;70.10
84358;BME280;74548;47.712;9.272;2024-01-15T03:53:45;94661.75;;;1.51;70.05
84358;BME280;74548;47.712;9.272;2024-01-15T03:56:11;94664.41;;;1.51;70.17
84358;BME280;74548;47.712;9.272;2024-01-15T03:58:37;94664.41;;;1.51;70.32
84358;BME280;74548;47.712;9.272;2024-01-15T04:01:02;94661.75;;;1.51;70.28
84358;BME280;74548;47.712;9.272;2024-01-15T04:03:28;94658.31;;;1.50;69.85
84358;BME280;74548;47.712;9.272;2024-01-15T04:05:53;94656.44;;;1.51;70.34
84358;BME280;74548;47.712;9.272;2024-01-15T04:08:18;94660.69;;;1.52;69.86
84358;BME280;74548;47.712;9.272;2024-01-15T04:10:44;94657.22;;;1.51;69.87
84358;BME280;74548;47.712;9.272;2024-01-15T04:13:09;94647.41;;;1.52;69.68
84358;BME280;74548;47.712;9.272;2024-01-15T04:15:34;94647.41;;;1.52;69.96
84358;BME280;74548;47.712;9.272;2024-01-15T04:18:02;94639.41;;;1.52;70.66
84358;BME280;74548;47.712;9.272;2024-01-15T04:20:27;94642.91;;;1.52;70.18
84358;BME280;74548;47.712;9.272;2024-01-15T04:22:53;94644.75;;;1.52;69.54
84358;BME280;74548;47.712;9.272;2024-01-15T04:25:18;94641.84;;;1.53;70.03
84358;BME280;74548;47.712;9.272;2024-01-15T04:27:43;94640.25;;;1.52;69.88
84358;BME280;74548;47.712;9.272;2024-01-15T04:30:09;94641.84;;;1.53;69.83
84358;BME280;74548;47.712;9.272;2024-01-15T04:32:35;94640.78;;;1.54;69.92
84358;BME280;74548;47.712;9.272;2024-01-15T04:35:01;94635.47;;;1.54;70.12
84358;BME280;74548;47.712;9.272;2024-01-15T04:37:26;94630.94;;;1.55;70.03
84358;BME280;74548;47.712;9.272;2024-01-15T04:39:52;94634.66;;;1.54;69.62
84358;BME280;74548;47.712;9.272;2024-01-15T04:42:20;94638.91;;;1.55;70.01
84358;BME280;74548;47.712;9.272;2024-01-15T04:44:45;94639.97;;;1.54;70.47
84358;BME280;74548;47.712;9.272;2024-01-15T04:47:11;94644.22;;;1.55;70.25
84358;BME280;74548;47.712;9.272;2024-01-15T04:49:36;94640.78;;;1.54;70.31
84358;BME280;74548;47.712;9.272;2024-01-15T04:52:01;94637.06;;;1.55;70.21
84358;BME280;74548;47.712;9.272;2024-01-15T04:54:27;94641.34;;;1.56;70.10
84358;BME280;74548;47.712;9.272;2024-01-15T04:56:52;94646.88;;;1.55;70.38
84358;BME280;74548;47.712;9.272;2024-01-15T04:59:17;94632.56;;;1.56;70.29
84358;BME280;74548;47.712;9.272;2024-01-15T05:01:43;94641.34;;;1.56;70.37
84358;BME280;74548;47.712;9.272;2024-01-15T05:04:08;94624.56;;;1.56;70.15
84358;BME280;74548;47.712;9.272;2024-01-15T05:06:33;94642.13;;;1.57;70.32
84358;BME280;74548;47.712;9.272;2024-01-15T05:08:59;94640.25;;;1.57;69.96
84358;BME280;74548;47.712;9.272;2024-01-15T05:11:24;94645.59;;;1.57;70.11
84358;BME280;74548;47.712;9.272;2024-01-15T05:13:50;94642.13;;;1.57;69.99
84358;BME280;74548;47.712;9.272;2024-01-15T05:16:15;94645.59;;;1.57;70.28
84358;BME280;74548;47.712;9.272;2024-01-15T05:18:40;94652.50;;;1.58;70.29
84358;BME280;74548;47.712;9.272;2024-01-15T05:21:06;94643.72;;;1.58;70.17
84358;BME280;74548;47.712;9.272;2024-01-15T05:23:31;94639.19;;;1.58;70.36
84358;BME280;74548;47.712;9.272;2024-01-15T05:25:57;94634.72;;;1.59;70.58
84358;BME280;74548;47.712;9.272;2024-01-15T05:28:22;94637.38;;;1.59;70.15
84358;BME280;74548;47.712;9.272;2024-01-15T05:30:48;94641.06;;;1.58;70.04
84358;BME280;74548;47.712;9.272;2024-01-15T05:33:15;94638.16;;;1.59;69.90
84358;BME280;74548;47.712;9.272;2024-01-15T05:35:41;94640.81;;;1.59;70.41
84358;BME280;74548;47.712;9.272;2024-01-15T05:38:06;94645.88;;;1.61;70.11
84358;BME280;74548;47.712;9.272;2024-01-15T05:40:31;94632.56;;;1.61;70.39
84358;BME280;74548;47.712;9.272;2024-01-15T05:42:57;94628.31;;;1.60;70.41
84358;BME280;74548;47.712;9.272;2024-01-15T05:45:22;94628.06;;;1.61;70.42
84358;BME280;74548;47.712;9.272;2024-01-15T05:47:47;94618.47;;;1.60;70.16
84358;BME280;74548;47.712;9.272;2024-01-15T05:50:13;94626.47;;;1.60;70.27
84358;BME280;74548;47.712;9.272;2024-01-15T05:52:38;94613.97;;;1.61;70.26
84358;BME280;74548;47.712;9.272;2024-01-15T05:55:04;94607.84;;;1.60;70.58
84358;BME280;74548;47.712;9.272;2024-01-15T05:57:29;94598.00;;;1.61;70.39
84358;BME280;74548;47.712;9.272;2024-01-15T05:59:55;94591.66;;;1.62;70.17
84358;BME280;74548;47.712;9.272;2024-01-15T06:02:21;94615.59;;;1.62;70.68
84358;BME280;74548;47.712;9.272;2024-01-15T06:04:46;94615.59;;;1.62;70.38
84358;BME280;74548;47.712;9.272;2024-01-15T06:07:11;94612.91;;;1.62;70.29
84358;BME280;74548;47.712;9.272;2024-01-15T06:09:37;94613.72;;;1.62;70.38
84358;BME280;74548;47.712;9.272;2024-01-15T06:12:03;94619.84;;;1.63;70.28
84358;BME280;74548;47.712;9.272;2024-01-15T06:14:29;94609.19;;;1.63;69.89
84358;BME280;74548;47.712;9.272;2024-01-15T06:16:54;94608.41;;;1.62;70.35
84358;BME280;74548;47.712;9.272;2024-01-15T06:19:20;94612.66;;;1.63;70.50
84358;BME280;74548;47.712;9.272;2024-01-15T06:21:45;94607.34;;;1.63;70.43
84358;BME280;74548;47.712;9.272;2024-01-15T06:24:10;94609.75;;;1.65;70.02
84358;BME280;74548;47.712;9.272;2024-01-15T06:26:36;94608.13;;;1.64;70.73
84358;BME280;74548;47.712;9.272;2024-01-15T06:29:01;94624.88;;;1.65;70.41
84358;BME280;74548;47.712;9.272;2024-01-15T06:31:28;94619.31;;;1.66;70.68
84358;BME280;74548;47.712;9.272;2024-01-15T06:33:53;94617.72;;;1.65;70.67
84358;BME280;74548;47.712;9.272;2024-01-15T06:36:18;94605.22;;;1.66;70.72
84358;BME280;74548;47.712;9.272;2024-01-15T06:38:44;94604.44;;;1.65;70.47
84358;BME280;74548;47.712;9.272;2024-01-15T06:41:09;94599.91;;;1.66;70.28
84358;BME280;74548;47.712;9.272;2024-01-15T06:43:35;94596.44;;;1.65;70.17
84358;BME280;74548;47.712;9.272;2024-01-15T06:46:00;94603.38;;;1.66;70.65
84358;BME280;74548;47.712;9.272;2024-01-15T06:48:26;94611.34;;;1.66;70.56
84358;BME280;74548;47.712;9.272;2024-01-15T06:50:51;94605.22;;;1.66;70.17
84358;BME280;74548;47.712;9.272;2024-01-15T06:53:16;94595.38;;;1.66;70.54
84358;BME280;74548;47.712;9.272;2024-01-15T06:55:41;94595.38;;;1.66;70.46
84358;BME280;74548;47.712;9.272;2024-01-15T06:58:07;94593.53;;;1.67;70.33
84358;BME280;74548;47.712;9.272;2024-01-15T07:00:32;94603.38;;;1.66;70.26
84358;BME280;74548;47.712;9.272;2024-01-15T07:02:58;94616.66;;;1.66;70.55
84358;BME280;74548;47.712;9.272;2024-01-15T07:05:23;94614.78;;;1.67;70.48
84358;BME280;74548;47.712;9.272;2024-01-15T07:07:49;94610.28;;;1.67;70.47
84358;BME280;74548;47.712;9.272;2024-01-15T07:10:14;94607.63;;;1.67;70.37
84358;BME280;74548;47.712;9.272;2024-01-15T07:12:43;94608.41;;;1.68;70.39
84358;BME280;74548;47.712;9.272;2024-01-15T07:15:09;94613.72;;;1.68;70.12
84358;BME280;74548;47.712;9.272;2024-01-15T07:17:35;94629.44;;;1.69;70.20
84358;BME280;74548;47.712;9.272;2024-01-15T07:20:01;94618.81;;;1.69;70.30
84358;BME280;74548;47.712;9.272;2024-01-15T07:22:27;94610.84;;;1.69;70.71
84358;BME280;74548;47.712;9.272;2024-01-15T07:24:52;94618.81;;;1.69;70.48
84358;BME280;74548;47.712;9.272;2024-01-15T07:27:18;94610.84;;;1.69;70.19
84358;BME280;74548;47.712;9.272;2024-01-15T07:29:43;94624.13;;;1.69;70.55
84358;BME280;74548;47.712;9.272;2024-01-15T07:32:08;94622.25;;;1.70;70.48
84358;BME280;74548;47.712;9.272;2024-01-15T07:34:34;94622.00;;;1.71;70.48
84358;BME280;74548;47.712;9.272;2024-01-15T07:36:59;94613.22;;;1.71;70.22
84358;BME280;74548;47.712;9.272;2024-01-15T07:39:25;94623.06;;;1.70;70.60
84358;BME280;74548;47.712;9.272;2024-01-15T07:41:53;94624.66;;;1.71;70.28
84358;BME280;74548;47.712;9.272;2024-01-15T07:44:18;94623.84;;;1.71;71.00
84358;BME280;74548;47.712;9.272;2024-01-15T07:46:44;94622.81;;;1.72;70.49
84358;BME280;74548;47.712;9.272;2024-01-15T07:49:10;94622.00;;;1.71;70.73
84358;BME280;74548;47.712;9.272;2024-01-15T07:51:36;94618.28;;;1.72;70.47
84358;BME280;74548;47.712;9.272;2024-01-15T07:54:01;94627.31;;;1.71;70.34
84358;BME280;74548;47.712;9.272;2024-01-15T07:56:27;94626.28;;;1.72;70.58
84358;BME280;74548;47.712;9.272;2024-01-15T07:58:52;94639.56;;;1.72;70.75
84358;BME280;74548;47.712;9.272;2024-01-15T08:01:18;94637.72;;;1.73;70.77
84358;BME280;74548;47.712;9.272;2024-01-15T08:03:43;94638.50;;;1.73;70.99
84358;BME280;74548;47.712;9.272;2024-01-15T08:06:08;94632.41;;;1.73;70.77
84358;BME280;74548;47.712;9.272;2024-01-15T08:08:35;94632.41;;;1.73;70.90
84358;BME280;74548;47.712;9.272;2024-01-15T08:11:00;94626.00;;;1.74;70.65
84358;BME280;74548;47.712;9.272;2024-01-15T08:13:26;94627.88;;;1.73;70.55
84358;BME280;74548;47.712;9.272;2024-01-15T08:15:52;94618.81;;;1.74;70.49
84358;BME280;74548;47.712;9.272;2024-01-15T08:18:17;94629.47;;;1.74;70.72
84358;BME280;74548;47.712;9.272;2024-01-15T08:20:42;94640.09;;;1.74;70.58
84358;BME280;74548;47.712;9.272;2024-01-15T08:23:08;94635.59;;;1.75;70.67
84358;BME280;74548;47.712;9.272;2024-01-15T08:25:33;94636.41;;;1.75;70.67
84358;BME280;74548;47.712;9.272;2024-01-15T08:27:59;94613.50;;;1.74;70.37
84358;BME280;74548;47.712;9.272;2024-01-15T08:30:24;94632.69;;;1.76;70.69
84358;BME280;74548;47.712;9.272;2024-01-15T08:32:53;94632.69;;;1.76;70.81
84358;BME280;74548;47.712;9.272;2024-01-15T08:35:18;94631.88;;;1.76;70.82
84358;BME280;74548;47.712;9.272;2024-01-15T08:37:51;94620.97;;;1.77;70.55
84358;BME280;74548;47.712;9.272;2024-01-15T08:40:18;94636.94;;;1.77;70.63
84358;BME280;74548;47.712;9.272;2024-01-15T08:42:43;94622.84;;;1.77;70.62
84358;BME280;74548;47.712;9.272;2024-01-15T08:45:09;94624.47;;;1.78;70.74
84358;BME280;74548;47.712;9.272;2024-01-15T08:47:34;94637.47;;;1.79;70.66
84358;BME280;74548;47.712;9.272;2024-01-15T08:50:00;94629.50;;;1.79;70.63
84358;BME280;74548;47.712;9.272;2024-01-15T08:52:26;94643.59;;;1.80;70.85
84358;BME280;74548;47.712;9.272;2024-01-15T08:54:51;94637.47;;;1.79;70.69
84358;BME280;74548;47.712;9.272;2024-01-15T08:57:17;94638.56;;;1.78;70.87
84358;BME280;74548;47.712;9.272;2024-01-15T08:59:42;94646.25;;;1.80;70.98
84358;BME280;74548;47.712;9.272;2024-01-15T09:02:07;94639.06;;;1.80;70.69
84358;BME280;74548;47.712;9.272;2024-01-15T09:04:33;94638.28;;;1.80;70.33
84358;BME280;74548;47.712;9.272;2024-01-15T09:06:58;94649.72;;;1.80;70.85
84358;BME280;74548;47.712;9.272;2024-01-15T09:09:24;94653.22;;;1.81;70.61
84358;BME280;74548;47.712;9.272;2024-01-15T09:11:51;94646.03;;;1.81;70.72
84358;BME280;74548;47.712;9.272;2024-01-15T09:14:16;94655.59;;;1.82;70.78
84358;BME280;74548;47.712;9.272;2024-01-15T09:16:42;94652.13;;;1.82;70.75
84358;BME280;74548;47.712;9.272;2024-01-15T09:19:07;94646.53;;;1.78;70.36
84358;BME280;74548;47.712;9.272;2024-01-15T09:21:32;94644.91;;;1.77;70.21
84358;BME280;74548;47.712;9.272;2024-01-15T09:23:58;94649.44;;;1.77;69.30
84358;BME280;74548;47.712;9.272;2024-01-15T09:26:23;94633.47;;;1.77;68.68
84358;BME280;74548;47.712;9.272;2024-01-15T09:28:49;94636.94;;;1.77;69.52
84358;BME280;74548;47.712;9.272;2024-01-15T09:31:14;94629.78;;;1.78;69.34
84358;BME280;74548;47.712;9.272;2024-01-15T09:33:39;94639.59;;;1.77;69.52
84358;BME280;74548;47.712;9.272;2024-01-15T09:36:05;94635.88;;;1.78;69.78
84358;BME280;74548;47.712;9.272;2024-01-15T09:38:31;94640.94;;;1.80;69.30
84358;BME280;74548;47.712;9.272;2024-01-15T09:40:57;94637.25;;;1.81;69.74
84358;BME280;74548;47.712;9.272;2024-01-15T09:43:22;94652.38;;;1.80;69.57
84358;BME280;74548;47.712;9.272;2024-01-15T09:45:49;94644.97;;;1.82;69.85
84358;BME280;74548;47.712;9.272;2024-01-15T09:48:14;94631.66;;;1.82;69.52
84358;BME280;74548;47.712;9.272;2024-01-15T09:50:40;94630.84;;;1.82;69.92
84358;BME280;74548;47.712;9.272;2024-01-15T09:53:05;94633.25;;;1.83;70.26
84358;BME280;74548;47.712;9.272;2024-01-15T09:55:31;94633.00;;;1.85;70.02
84358;BME280;74548;47.712;9.272;2024-01-15T09:57:59;94634.88;;;1.84;69.82
84358;BME280;74548;47.712;9.272;2024-01-15T10:00:25;94617.28;;;1.83;69.04
84358;BME280;74548;47.712;9.272;2024-01-15T10:02:51;94636.97;;;1.82;67.50
84358;BME280;74548;47.712;9.272;2024-01-15T10:05:17;94634.59;;;1.86;66.20
84358;BME280;74548;47.712;9.272;2024-01-15T10:07:43;94625.59;;;1.92;65.73
84358;BME280;74548;47.712;9.272;2024-01-15T10:10:11;94636.28;;;2.02;65.85
84358;BME280;74548;47.712;9.272;2024-01-15T10:12:36;94638.47;;;2.11;66.58
84358;BME280;74548;47.712;9.272;2024-01-15T10:15:03;94621.75;;;2.20;66.66
84358;BME280;74548;47.712;9.272;2024-01-15T10:17:29;94625.50;;;2.29;66.65
84358;BME280;74548;47.712;9.272;2024-01-15T10:19:57;94613.53;;;2.37;66.53
84358;BME280;74548;47.712;9.272;2024-01-15T10:22:22;94610.63;;;2.44;66.82
84358;BME280;74548;47.712;9.272;2024-01-15T10:24:48;94590.94;;;2.50;66.95
84358;BME280;74548;47.712;9.272;2024-01-15T10:27:14;94596.84;;;2.57;66.63
84358;BME280;74548;47.712;9.272;2024-01-15T10:29:41;94592.59;;;2.61;66.51
84358;BME280;74548;47.712;9.272;2024-01-15T10:32:07;94589.13;;;2.66;66.77
84358;BME280;74548;47.712;9.272;2024-01-15T10:34:40;94576.91;;;2.70;66.67
84358;BME280;74548;47.712;9.272;2024-01-15T10:37:07;94568.09;;;2.74;66.61
84358;BME280;74548;47.712;9.272;2024-01-15T10:39:32;94563.03;;;2.78;66.77
84358;BME280;74548;47.712;9.272;2024-01-15T10:41:57;94549.47;;;2.79;66.55
84358;BME280;74548;47.712;9.272;2024-01-15T10:44:23;94566.53;;;2.84;66.80
84358;BME280;74548;47.712;9.272;2024-01-15T10:46:48;94552.66;;;2.87;66.75
84358;BME280;74548;47.712;9.272;2024-01-15T10:49:13;94560.13;;;2.90;66.63
84358;BME280;74548;47.712;9.272;2024-01-15T10:51:39;94558.81;;;2.92;66.63
84358;BME280;74548;47.712;9.272;2024-01-15T10:54:05;94549.72;;;2.93;67.03
84358;BME280;74548;47.712;9.272;2024-01-15T10:56:31;94550.28;;;2.95;66.52
84358;BME280;74548;47.712;9.272;2024-01-15T10:58:59;94559.59;;;2.98;67.04
84358;BME280;74548;47.712;9.272;2024-01-15T11:01:24;94557.75;;;2.98;66.91
84358;BME280;74548;47.712;9.272;2024-01-15T11:03:50;94560.94;;;3.00;66.91
84358;BME280;74548;47.712;9.272;2024-01-15T11:06:16;94551.88;;;3.01;66.92
84358;BME280;74548;47.712;9.272;2024-01-15T11:08:46;94556.13;;;3.02;66.94
84358;BME280;74548;47.712;9.272;2024-01-15T11:11:13;94549.72;;;3.03;66.83
84358;BME280;74548;47.712;9.272;2024-01-15T11:13:40;94557.47;;;3.05;66.73
84358;BME280;74548;47.712;9.272;2024-01-15T11:16:07;94551.06;;;3.06;66.86
84358;BME280;74548;47.712;9.272;2024-01-15T11:18:39;94543.06;;;3.06;67.01
84358;BME280;74548;47.712;9.272;2024-01-15T11:23:46;94534.00;;;3.07;66.77
84358;BME280;74548;47.712;9.272;2024-01-15T11:32:09;94543.88;;;3.12;67.30
84358;BME280;74548;47.712;9.272;2024-01-15T11:34:54;94542.00;;;3.12;67.21
84358;BME280;74548;47.712;9.272;2024-01-15T11:37:22;94542.00;;;3.12;66.99
84358;BME280;74548;47.712;9.272;2024-01-15T11:39:51;94529.75;;;3.11;67.30
84358;BME280;74548;47.712;9.272;2024-01-15T11:42:16;94535.09;;;3.11;67.05
84358;BME280;74548;47.712;9.272;2024-01-15T11:44:43;94540.41;;;3.11;67.18
84358;BME280;74548;47.712;9.272;2024-01-15T11:47:10;94541.22;;;3.12;67.30
84358;BME280;74548;47.712;9.272;2024-01-15T11:52:06;94535.88;;;3.12;67.22
84358;BME280;74548;47.712;9.272;2024-01-15T11:54:34;94540.41;;;3.11;67.44
84358;BME280;74548;47.712;9.272;2024-01-15T11:57:10;94541.22;;;3.12;67.24
84358;BME280;74548;47.712;9.272;2024-01-15T11:59:41;94534.81;;;3.13;67.30
84358;BME280;74548;47.712;9.272;2024-01-15T12:02:06;94532.13;;;3.13;67.25
84358;BME280;74548;47.712;9.272;2024-01-15T12:04:32;94532.13;;;3.13;67.30
84358;BME280;74548;47.712;9.272;2024-01-15T12:06:57;94532.13;;;3.13;67.55
84358;BME280;74548;47.712;9.272;2024-01-15T12:09:22;94538.28;;;3.13;67.50
84358;BME280;74548;47.712;9.272;2024-01-15T12:11:55;94529.22;;;3.14;67.45
84358;BME280;74548;47.712;9.272;2024-01-15T12:14:24;94523.88;;;3.14;67.28
84358;BME280;74548;47.712;9.272;2024-01-15T12:16:49;94518.00;;;3.12;67.39
84358;BME280;74548;47.712;9.272;2024-01-15T12:19:16;94519.34;;;3.15;68.05
84358;BME280;74548;47.712;9.272;2024-01-15T12:21:41;94515.06;;;3.14;67.58
84358;BME280;74548;47.712;9.272;2024-01-15T12:24:07;94512.16;;;3.15;67.56
84358;BME280;74548;47.712;9.272;2024-01-15T12:26:33;94512.16;;;3.15;67.37
84358;BME280;74548;47.712;9.272;2024-01-15T12:29:01;94516.41;;;3.16;67.77
84358;BME280;74548;47.712;9.272;2024-01-15T12:31:27;94528.16;;;3.15;67.69
84358;BME280;74548;47.712;9.272;2024-01-15T12:33:53;94519.06;;;3.16;67.90
84358;BME280;74548;47.712;9.272;2024-01-15T12:36:21;94507.59;;;3.16;67.68
84358;BME280;74548;47.712;9.272;2024-01-15T12:38:47;94502.03;;;3.17;67.89
84358;BME280;74548;47.712;9.272;2024-01-15T12:41:12;94498.53;;;3.17;67.84
84358;BME280;74548;47.712;9.272;2024-01-15T12:43:38;94495.88;;;3.17;67.78
84358;BME280;74548;47.712;9.272;2024-01-15T12:46:03;94495.06;;;3.16;67.67
84358;BME280;74548;47.712;9.272;2024-01-15T12:48:28;94497.75;;;3.16;67.54
84358;BME280;74548;47.712;9.272;2024-01-15T12:50:55;94491.63;;;3.16;67.45
84358;BME280;74548;47.712;9.272;2024-01-15T12:53:20;94488.16;;;3.15;67.71
84358;BME280;74548;47.712;9.272;2024-01-15T12:55:46;94495.34;;;3.15;67.79
84358;BME280;74548;47.712;9.272;2024-01-15T12:58:12;94494.56;;;3.14;67.71
84358;BME280;74548;47.712;9.272;2024-01-15T13:00:37;94493.50;;;3.15;67.93
84358;BME280;74548;47.712;9.272;2024-01-15T13:03:02;94497.22;;;3.14;67.85
84358;BME280;74548;47.712;9.272;2024-01-15T13:05:29;94502.56;;;3.14;68.00
84358;BME280;74548;47.712;9.272;2024-01-15T13:07:56;94500.41;;;3.16;67.70
84358;BME280;74548;47.712;9.272;2024-01-15T13:10:21;94500.41;;;3.16;67.64
84358;BME280;74548;47.712;9.272;2024-01-15T13:12:47;94500.41;;;3.16;67.85